• Join FlightAware (Why Join?)
  • Login
  • US Flag 
02:17PM EDT


 

Airport Tracker/Info


-or-


 

Live Flight TrackerFlight Track Log ✈ CCA1491 ✈ 21-May-2012 ✈ ZSPD / PVG - ZUUU / CTU

Flight Track Log - Related Links

Times and Time Zones

All times are in EDT time to prevent confusion due to time zone crossing. See the CCA1491 flight status page for this flight to view local times or setup timezone preferences in your user account.

Time Position Orientation Groundspeed Altitude Reporting Facility
EDT Latitude Longitude Course Direction KTS MPH feet Rate Location/Type
09:44AM 31.1456 121.7161 272° West  Level Estimated
09:45AM 31.1508 121.5731 272° West  Level Estimated
09:46AM 31.1559 121.4301 272° West  Level Estimated
09:47AM 31.1608 121.2871 272° West  Level Estimated
09:48AM 31.1655 121.1441 272° West  Level Estimated
09:49AM 31.1701 121.0010 272° West  Level Estimated
09:50AM 31.1745 120.8580 272° West  Level Estimated
09:51AM 31.1787 120.7149 272° West  Level Estimated
09:52AM 31.1828 120.5718 272° West  Level Estimated
09:53AM 31.1868 120.4287 272° West  Level Estimated
09:54AM 31.1906 120.2856 272° West  Level Estimated
09:55AM 31.1942 120.1425 272° West  Level Estimated
09:56AM 31.1977 119.9994 272° West  Level Estimated
09:57AM 31.2010 119.8562 272° West  Level Estimated
09:58AM 31.2041 119.7131 271° West  Level Estimated
09:59AM 31.2071 119.5699 271° West  Level Estimated
10:00AM 31.2099 119.4267 271° West  Level Estimated
10:01AM 31.2126 119.2835 271° West  Level Estimated
10:02AM 31.2151 119.1404 271° West  Level Estimated
10:03AM 31.2175 118.9972 271° West  Level Estimated
10:04AM 31.2197 118.8540 271° West  Level Estimated
10:05AM 31.2217 118.7107 271° West  Level Estimated
10:06AM 31.2236 118.5675 271° West  Level Estimated
10:07AM 31.2253 118.4243 271° West  Level Estimated
10:08AM 31.2269 118.2811 271° West  Level Estimated
10:09AM 31.2283 118.1378 271° West  Level Estimated
10:10AM 31.2295 117.9946 271° West  Level Estimated
10:11AM 31.2306 117.8514 270° West  Level Estimated
10:12AM 31.2315 117.7081 270° West  Level Estimated
10:13AM 31.2323 117.5649 270° West  Level Estimated
10:14AM 31.2329 117.4217 270° West  Level Estimated
10:15AM 31.2334 117.2784 270° West  Level Estimated
10:16AM 31.2336 117.1352 270° West  Level Estimated
10:17AM 31.2338 116.9919 270° West  Level Estimated
10:18AM 31.2337 116.8487 270° West  Level Estimated
10:19AM 31.2336 116.7054 270° West  Level Estimated
10:20AM 31.2332 116.5622 270° West  Level Estimated
10:21AM 31.2327 116.4189 270° West  Level Estimated
10:22AM 31.2321 116.2757 270° West  Level Estimated
10:23AM 31.2312 116.1324 270° West  Level Estimated
10:24AM 31.2303 115.9892 270° West  Level Estimated
10:25AM 31.2291 115.8460 269° West  Level Estimated
10:26AM 31.2278 115.7028 269° West  Level Estimated
10:27AM 31.2264 115.5595 269° West  Level Estimated
10:28AM 31.2248 115.4163 269° West  Level Estimated
10:29AM 31.2230 115.2731 269° West  Level Estimated
10:30AM 31.2211 115.1299 269° West  Level Estimated
10:31AM 31.2190 114.9866 269° West  Level Estimated
10:32AM 31.2167 114.8435 269° West  Level Estimated
10:33AM 31.2143 114.7003 269° West  Level Estimated
10:34AM 31.2117 114.5571 269° West  Level Estimated
10:35AM 31.2090 114.4139 269° West  Level Estimated
10:36AM 31.2061 114.2707 269° West  Level Estimated
10:37AM 31.2031 114.1276 269° West  Level Estimated
10:38AM 31.1999 113.9844 268° West  Level Estimated
10:39AM 31.1965 113.8413 268° West  Level Estimated
10:40AM 31.1930 113.6981 268° West  Level Estimated
10:41AM 31.1893 113.5550 268° West  Level Estimated
10:42AM 31.1855 113.4119 268° West  Level Estimated
10:43AM 31.1815 113.2688 268° West  Level Estimated
10:44AM 31.1774 113.1257 268° West  Level Estimated
10:45AM 31.1730 112.9827 268° West  Level Estimated
10:46AM 31.1686 112.8396 268° West  Level Estimated
10:47AM 31.1639 112.6966 268° West  Level Estimated
10:48AM 31.1592 112.5536 268° West  Level Estimated
10:49AM 31.1542 112.4105 268° West  Level Estimated
10:50AM 31.1491 112.2675 268° West  Level Estimated
10:51AM 31.1439 112.1246 268° West  Level Estimated
10:52AM 31.1385 111.9816 267° West  Level Estimated
10:53AM 31.1329 111.8386 267° West  Level Estimated
10:54AM 31.1271 111.6957 267° West  Level Estimated
10:55AM 31.1213 111.5528 267° West  Level Estimated
10:56AM 31.1152 111.4099 267° West  Level Estimated
10:57AM 31.1090 111.2670 267° West  Level Estimated
10:58AM 31.1026 111.1241 267° West  Level Estimated
10:59AM 31.0961 110.9813 267° West  Level Estimated
11:00AM 31.0895 110.8385 267° West  Level Estimated
11:01AM 31.0826 110.6957 267° West  Level Estimated
11:02AM 31.0756 110.5529 267° West  Level Estimated
11:03AM 31.0685 110.4101 267° West  Level Estimated
11:04AM 31.0612 110.2674 267° West  Level Estimated
11:05AM 31.0537 110.1247 266° West  Level Estimated
11:06AM 31.0461 109.9820 266° West  Level Estimated
11:07AM 31.0383 109.8393 266° West  Level Estimated
11:08AM 31.0304 109.6967 266° West  Level Estimated
11:09AM 31.0223 109.5540 266° West  Level Estimated
11:10AM 31.0140 109.4115 266° West  Level Estimated
11:11AM 31.0056 109.2689 266° West  Level Estimated
11:12AM 30.9971 109.1263 266° West  Level Estimated
11:13AM 30.9884 108.9838 266° West  Level Estimated
11:14AM 30.9795 108.8413 266° West  Level Estimated
11:15AM 30.9705 108.6988 266° West  Level Estimated
11:16AM 30.9613 108.5564 266° West  Level Estimated
11:17AM 30.9519 108.4140 266° West  Level Estimated
11:18AM 30.9424 108.2716 266° West  Level Estimated
11:19AM 30.9328 108.1292 265° West  Level Estimated
11:20AM 30.9230 107.9869 265° West  Level Estimated
11:21AM 30.9130 107.8446 265° West  Level Estimated
11:22AM 30.9029 107.7023 265° West  Level Estimated
11:23AM 30.8926 107.5601 265° West  Level Estimated
11:24AM 30.8822 107.4179 265° West  Level Estimated
11:25AM 30.8716 107.2757 265° West  Level Estimated
11:26AM 30.8608 107.1336 265° West  Level Estimated
11:27AM 30.8500 106.9914 265° West  Level Estimated
11:28AM 30.8389 106.8494 265° West  Level Estimated
11:29AM 30.8277 106.7073 265° West  Level Estimated
11:30AM 30.8163 106.5653 265° West  Level Estimated
11:31AM 30.8048 106.4233 265° West  Level Estimated
11:32AM 30.7931 106.2814 264° West  Level Estimated
11:33AM 30.7813 106.1395 264° West  Level Estimated
11:34AM 30.7693 105.9976 264° West  Level Estimated
11:35AM 30.7572 105.8558 264° West  Level Estimated
11:36AM 30.7449 105.7140 264° West  Level Estimated
11:37AM 30.7325 105.5722 264° West  Level Estimated
11:38AM 30.7199 105.4305 264° West  Level Estimated
11:39AM 30.7071 105.2888 264° West  Level Estimated
11:40AM 30.6942 105.1471 264° West  Level Estimated
11:41AM 30.6811 105.0055 264° West  Level Estimated
11:42AM 30.6679 104.8639 264° West  Level Estimated
11:43AM 30.6545 104.7224 264° West  Level Estimated
11:44AM 30.6410 104.5809 264° West  Level Estimated
11:45AM 30.6273 104.4394 264° West  Level Estimated
11:46AM 30.6135 104.2980 263° West  Level Estimated
11:47AM 30.5995 104.1566 263° West  Level Estimated
11:48AM 30.5854 104.0153 263° West  Level Estimated
11:49AM 30.5711 103.8739 83° East  Level Estimated
11:50AM 30.5854 104.0153 263° West  Level Estimated
11:51AM 30.5711 103.8739 83° East  Level Estimated
11:52AM 30.5854 104.0153 263° West  Level Estimated
11:53AM 30.5711 103.8739 83° East  Level Estimated
11:54AM 30.5854 104.0153 263° West  Level Estimated
11:55AM 30.5711 103.8739 83° East  Level Estimated
11:56AM 30.5854 104.0153 263° West  Level Estimated
11:57AM 30.5711 103.8739 83° East  Level Estimated
11:58AM 30.5854 104.0153 263° West  Level Estimated
11:59AM 30.5711 103.8739 83° East  Level Estimated
12:00PM 30.5854 104.0153 263° West  Level Estimated
12:01PM 30.5711 103.8739 83° East  Level Estimated
12:02PM 30.5854 104.0153 263° West  Level Estimated
12:03PM 30.5711 103.8739 83° East  Level Estimated
12:04PM 30.5854 104.0153 83° East  Level Estimated